Time;durP1;ratioP1;P1;durP2;ratioP2;P2;SDS_P1;SDS_P2;PMS_P1;PMS_P2;Temp;Humidity;BMP_temperature;BMP_pressure;BME280_temperature;BME280_humidity;BME280_pressure;Samples;Min_cycle;Max_cycle;Signal;HPM_P1;HPM_P2
2021/12/24 00:01:43;;;;;;;15.35;4.03;;;;;;;7.28;100.00;97894.72;4975881;28;20038;-85
2021/12/24 00:04:13;;;;;;;14.05;3.28;;;;;;;7.35;100.00;97914.81;4942410;28;20504;-85
2021/12/24 00:06:38;;;;;;;9.07;3.90;;;;;;;7.18;100.00;97894.31;4958559;28;20521;-87
2021/12/24 00:09:05;;;;;;;20.17;3.85;;;;;;;7.36;100.00;97911.19;4959045;28;20057;-86
2021/12/24 00:11:32;;;;;;;19.77;4.18;;;;;;;7.29;100.00;97896.34;4957343;28;20130;-86
2021/12/24 00:13:59;;;;;;;13.30;3.47;;;;;;;7.36;100.00;97905.97;4957060;28;20428;-84
2021/12/24 00:16:38;;;;;;;20.60;4.53;;;;;;;7.46;100.00;97906.34;4941700;28;20409;-84
2021/12/24 00:19:19;;;;;;;21.58;4.13;;;;;;;7.49;100.00;97910.38;4956044;28;20034;-84
2021/12/24 00:35:32;;;;;;;16.92;5.20;;;;;;;7.13;100.00;97900.13;4973828;28;20034;-85
2021/12/24 00:38:03;;;;;;;22.38;6.57;;;;;;;7.06;100.00;97907.16;4957599;28;20043;-85
2021/12/24 00:40:36;;;;;;;22.83;6.28;;;;;;;6.79;100.00;97873.22;4942541;28;20031;-85
2021/12/24 00:43:03;;;;;;;19.95;6.10;;;;;;;6.98;100.00;97900.31;4970527;28;20489;-84
2021/12/24 00:45:32;;;;;;;16.65;5.60;;;;;;;6.93;100.00;97900.13;4974024;28;20035;-84
2021/12/24 00:47:58;;;;;;;16.52;5.85;;;;;;;6.93;100.00;97902.75;4970540;28;20054;-85
2021/12/24 00:50:29;;;;;;;17.35;5.43;;;;;;;6.97;100.00;97909.16;4951784;28;20054;-85
2021/12/24 00:53:01;;;;;;;23.23;6.38;;;;;;;6.87;100.00;97900.91;4966215;28;20069;-85
2021/12/24 00:55:30;;;;;;;16.20;5.70;;;;;;;6.99;100.00;97914.97;4945033;28;20038;-85
2021/12/24 00:58:00;;;;;;;23.73;5.88;;;;;;;6.84;100.00;97886.47;4942488;28;20063;-85
2021/12/24 01:00:37;;;;;;;21.85;6.00;;;;;;;6.96;100.00;97907.56;4944065;28;20031;-84
2021/12/24 01:03:07;;;;;;;20.00;5.90;;;;;;;6.77;100.00;97897.88;4943203;28;20049;-85
2021/12/24 01:05:34;;;;;;;22.35;6.90;;;;;;;6.76;100.00;97906.72;4955977;28;20034;-83
2021/12/24 01:08:01;;;;;;;20.45;7.05;;;;;;;6.68;100.00;97905.91;4958409;28;20030;-85
2021/12/24 01:10:34;;;;;;;18.98;6.68;;;;;;;6.73;100.00;97918.34;4940586;28;20031;-85
2021/12/24 01:13:00;;;;;;;20.10;6.65;;;;;;;6.76;100.00;97912.72;4942313;28;20030;-84
2021/12/24 01:15:28;;;;;;;21.92;7.35;;;;;;;6.78;100.00;97915.16;4956268;28;20517;-85
2021/12/24 01:18:18;;;;;;;21.45;6.97;;;;;;;6.74;100.00;97909.50;4972216;28;20505;-84
2021/12/24 01:20:49;;;;;;;18.85;6.40;;;;;;;6.74;100.00;97904.28;4955930;28;20098;-86
2021/12/24 01:23:43;;;;;;;22.85;7.43;;;;;;;6.49;100.00;97878.78;4957714;28;20086;-86
2021/12/24 01:26:14;;;;;;;17.90;6.50;;;;;;;6.64;100.00;97909.88;4958364;28;20092;-85
2021/12/24 01:39:27;;;;;;;17.55;5.82;;;;;;;6.96;100.00;97907.56;4956363;28;20065;-86
2021/12/24 01:44:38;;;;;;;15.38;5.35;;;;;;;7.02;100.00;97884.28;4957449;28;20031;-85
2021/12/24 01:47:06;;;;;;;14.48;5.93;;;;;;;6.84;100.00;97888.25;4940338;28;20113;-86
2021/12/24 01:49:33;;;;;;;14.93;4.95;;;;;;;6.80;100.00;97874.03;4938698;28;20389;-84
2021/12/24 01:51:59;;;;;;;13.77;5.07;;;;;;;6.76;100.00;97865.00;4939692;28;20054;-85
2021/12/24 01:54:26;;;;;;;11.88;4.82;;;;;;;6.84;100.00;97891.69;4956217;28;20116;-82
2021/12/24 01:56:52;;;;;;;22.60;5.30;;;;;;;6.78;100.00;97889.88;4956002;28;20058;-84
2021/12/24 01:59:18;;;;;;;17.30;6.18;;;;;;;6.77;100.00;97884.84;4955585;28;20504;-82
2021/12/24 02:01:44;;;;;;;21.23;7.15;;;;;;;6.75;100.00;97871.22;4955867;28;20034;-84
2021/12/24 02:04:14;;;;;;;19.05;6.13;;;;;;;6.76;100.00;97883.25;4939307;28;20398;-85
2021/12/24 02:06:41;;;;;;;17.40;7.07;;;;;;;6.72;100.00;97875.00;4972800;28;20026;-87
2021/12/24 02:09:08;;;;;;;22.35;7.50;;;;;;;6.63;100.00;97861.34;4955822;28;20026;-85
2021/12/24 02:11:38;;;;;;;26.67;8.50;;;;;;;6.82;100.00;97885.88;4937623;28;20034;-84
2021/12/24 02:14:19;;;;;;;27.85;9.95;;;;;;;6.91;100.00;97894.31;4939454;28;20503;-85
2021/12/24 02:30:30;;;;;;;28.08;10.02;;;;;;;6.84;100.00;97872.63;4954881;28;20027;-86
2021/12/24 02:32:56;;;;;;;28.58;9.98;;;;;;;6.89;100.00;97874.63;4957384;28;20066;-86
2021/12/24 02:35:22;;;;;;;33.15;11.60;;;;;;;6.87;100.00;97864.38;4955774;28;20030;-84
2021/12/24 02:37:49;;;;;;;32.25;13.45;;;;;;;7.04;100.00;97893.50;4955184;28;20042;-86
2021/12/24 02:40:15;;;;;;;26.30;11.10;;;;;;;6.98;100.00;97889.09;4940022;28;20039;-85
2021/12/24 02:42:48;;;;;;;24.65;10.40;;;;;;;6.91;100.00;97891.69;4940174;28;20525;-84
2021/12/24 02:45:14;;;;;;;23.40;9.93;;;;;;;6.72;100.00;97896.69;4939026;28;20166;-85
2021/12/24 02:55:33;;;;;;;26.63;12.35;;;;;;;6.45;100.00;97879.34;4972665;28;20397;-85
2021/12/24 02:57:59;;;;;;;32.00;11.52;;;;;;;6.22;100.00;97870.06;4972340;28;20039;-85
2021/12/24 03:00:27;;;;;;;27.38;11.15;;;;;;;6.25;100.00;97880.91;4954049;28;20034;-85
2021/12/24 03:02:54;;;;;;;25.50;10.10;;;;;;;6.42;100.00;97885.78;4939433;28;20053;-85
2021/12/24 03:05:24;;;;;;;28.98;9.93;;;;;;;6.67;100.00;97887.84;4939795;28;20030;-86
2021/12/24 03:07:50;;;;;;;23.27;10.13;;;;;;;6.54;100.00;97894.63;4958478;28;20085;-85
2021/12/24 03:10:18;;;;;;;28.75;10.18;;;;;;;6.46;100.00;97891.38;4938154;28;20041;-86
2021/12/24 03:12:47;;;;;;;29.65;11.48;;;;;;;6.26;100.00;97898.16;4939677;28;20027;-85
2021/12/24 03:15:15;;;;;;;29.00;11.43;;;;;;;6.12;100.00;97883.44;4955362;28;20050;-84
2021/12/24 03:17:49;;;;;;;28.83;12.05;;;;;;;6.55;100.00;97896.22;4955433;28;20031;-86
2021/12/24 03:20:16;;;;;;;25.45;10.43;;;;;;;6.50;100.00;97892.63;4959464;28;20039;-85
2021/12/24 03:22:50;;;;;;;22.48;9.63;;;;;;;6.26;100.00;97890.34;4976708;28;20043;-86
2021/12/24 03:25:16;;;;;;;21.75;8.85;;;;;;;6.22;100.00;97896.13;4941147;28;20441;-85
2021/12/24 03:27:42;;;;;;;20.30;8.88;;;;;;;6.09;100.00;97889.06;4958656;28;20027;-85
2021/12/24 03:30:09;;;;;;;23.92;9.32;;;;;;;6.14;100.00;97897.91;4975576;28;20031;-85
2021/12/24 03:32:34;;;;;;;20.17;8.15;;;;;;;6.13;100.00;97891.09;4942702;28;20027;-85
2021/12/24 03:35:00;;;;;;;22.98;7.95;;;;;;;6.10;100.00;97891.47;4942675;28;20031;-86
2021/12/24 03:37:25;;;;;;;27.92;9.57;;;;;;;5.96;100.00;97877.53;4942091;28;20022;-85
2021/12/24 03:39:51;;;;;;;24.55;9.60;;;;;;;6.06;100.00;97897.25;4976022;28;20031;-86
2021/12/24 03:42:17;;;;;;;26.58;10.90;;;;;;;6.02;100.00;97889.03;4942544;28;20027;-85
2021/12/24 03:44:51;;;;;;;21.88;10.18;;;;;;;5.94;100.00;97886.56;4957831;28;20497;-85
2021/12/24 03:47:20;;;;;;;23.40;10.80;;;;;;;5.87;100.00;97894.34;4942551;28;20031;-85
2021/12/24 03:50:01;;;;;;;20.75;9.57;;;;;;;5.90;100.00;97900.97;4958259;28;20042;-84
2021/12/24 03:54:56;;;;;;;21.83;8.27;;;;;;;5.80;100.00;97901.31;4958693;28;20445;-85
2021/12/24 03:57:34;;;;;;;20.75;8.45;;;;;;;5.74;100.00;97897.66;4957283;28;20038;-85
2021/12/24 04:00:15;;;;;;;19.52;7.60;;;;;;;5.79;100.00;97897.91;4957639;28;20536;-86
2021/12/24 04:02:41;;;;;;;22.30;8.07;;;;;;;5.68;100.00;97880.19;4959110;28;20059;-85
2021/12/24 04:05:07;;;;;;;20.45;9.20;;;;;;;5.70;100.00;97891.25;4957569;28;20066;-86
2021/12/24 04:07:33;;;;;;;16.83;7.72;;;;;;;5.33;100.00;97893.19;4958340;28;20489;-85
2021/12/24 04:12:25;;;;;;;22.00;9.25;;;;;;;5.18;100.00;97896.69;4957896;28;20030;-84
2021/12/24 04:14:52;;;;;;;22.92;8.85;;;;;;;5.11;100.00;97895.81;4956649;28;20110;-85
2021/12/24 04:17:19;;;;;;;19.02;8.38;;;;;;;5.06;100.00;97901.59;4939869;28;20076;-84
2021/12/24 04:25:14;;;;;;;23.92;8.30;;;;;;;5.03;100.00;97888.13;4957337;28;20059;-84
2021/12/24 04:27:40;;;;;;;25.15;9.10;;;;;;;4.94;100.00;97890.88;4941151;28;20043;-84
2021/12/24 04:30:14;;;;;;;18.08;9.15;;;;;;;4.74;100.00;97879.50;4958025;28;20027;-85
2021/12/24 04:35:39;;;;;;;32.75;10.73;;;;;;;4.95;100.00;97892.50;4976269;28;20059;-85
2021/12/24 04:51:30;;;;;;;22.80;9.15;;;;;;;4.68;100.00;97896.63;4958904;28;20031;-82
2021/12/24 05:10:23;;;;;;;28.77;12.88;;;;;;;5.15;100.00;97886.66;4955909;28;20398;-84
2021/12/24 05:12:48;;;;;;;30.30;13.00;;;;;;;5.25;100.00;97887.13;4973044;28;20098;-85
2021/12/24 05:15:15;;;;;;;23.75;11.48;;;;;;;5.23;100.00;97889.09;4940715;28;20056;-85
2021/12/24 05:23:00;;;;;;;26.27;10.85;;;;;;;5.53;100.00;97901.94;4955847;28;20033;-85
2021/12/24 05:25:26;;;;;;;27.35;12.07;;;;;;;5.46;100.00;97898.47;4956759;28;20031;-84
2021/12/24 05:27:52;;;;;;;25.52;10.80;;;;;;;5.53;100.00;97899.34;4940611;28;20416;-84
2021/12/24 05:30:18;;;;;;;25.80;9.70;;;;;;;5.56;100.00;97896.34;4955736;28;20037;-85
2021/12/24 05:32:44;;;;;;;23.00;10.10;;;;;;;5.40;100.00;97894.84;4941403;28;20062;-86
2021/12/24 05:35:10;;;;;;;24.63;9.48;;;;;;;5.61;100.00;97894.97;4956367;28;20058;-84
2021/12/24 05:37:36;;;;;;;23.60;9.18;;;;;;;5.68;100.00;97906.22;4940081;28;20089;-85
2021/12/24 05:40:03;;;;;;;25.65;9.73;;;;;;;5.46;100.00;97869.84;4954847;28;20030;-85
2021/12/24 05:42:31;;;;;;;21.40;9.25;;;;;;;5.55;100.00;97892.16;4942330;28;20042;-84
2021/12/24 05:45:03;;;;;;;13.50;7.45;;;;;;;5.64;100.00;97905.00;4951092;28;20034;-86
2021/12/24 05:47:29;;;;;;;15.38;7.45;;;;;;;5.34;100.00;97889.59;4939654;28;20035;-85
2021/12/24 05:49:55;;;;;;;22.65;7.22;;;;;;;5.31;100.00;97901.19;4958951;28;20035;-87
2021/12/24 05:52:20;;;;;;;13.50;7.20;;;;;;;5.19;100.00;97898.28;4958408;28;20027;-85
2021/12/24 05:54:47;;;;;;;17.00;8.23;;;;;;;5.02;100.00;97889.13;4958066;28;20034;-85
2021/12/24 05:57:13;;;;;;;21.15;9.23;;;;;;;5.03;100.00;97893.34;4952925;28;20496;-87
2021/12/24 05:59:39;;;;;;;20.95;9.20;;;;;;;5.02;100.00;97899.53;4958445;28;20404;-86
2021/12/24 06:02:04;;;;;;;20.00;8.82;;;;;;;4.92;100.00;97899.84;4942219;28;20113;-87
2021/12/24 06:04:30;;;;;;;18.90;8.88;;;;;;;4.87;100.00;97900.41;4958627;28;20481;-85
2021/12/24 06:06:56;;;;;;;18.63;8.40;;;;;;;4.88;100.00;97901.22;4942144;28;20031;-85
2021/12/24 06:09:21;;;;;;;17.95;7.93;;;;;;;4.81;100.00;97911.56;4958436;28;20034;-85
2021/12/24 06:11:47;;;;;;;14.35;7.45;;;;;;;4.71;100.00;97907.44;4958247;28;20077;-88
2021/12/24 06:14:13;;;;;;;21.83;10.32;;;;;;;4.86;100.00;97924.78;4958910;28;20109;-85
2021/12/24 06:16:47;;;;;;;24.13;9.10;;;;;;;4.98;100.00;97912.91;4957994;28;20077;-86
2021/12/24 06:19:14;;;;;;;21.75;8.25;;;;;;;5.07;100.00;97905.78;4958588;28;20038;-85
2021/12/24 06:21:40;;;;;;;17.95;8.05;;;;;;;5.05;100.00;97896.56;4942342;28;20041;-87
2021/12/24 06:24:06;;;;;;;19.65;8.88;;;;;;;5.05;100.00;97878.34;4958453;28;20113;-86
2021/12/24 06:26:32;;;;;;;24.40;8.43;;;;;;;5.19;100.00;97910.47;4942670;28;20031;-87
2021/12/24 06:28:57;;;;;;;26.02;10.65;;;;;;;5.13;100.00;97899.03;4942009;28;20118;-88
2021/12/24 06:31:23;;;;;;;23.13;10.35;;;;;;;5.12;100.00;97903.44;4941765;28;20034;-85
2021/12/24 06:33:48;;;;;;;27.42;10.95;;;;;;;5.00;100.00;97900.53;4958173;28;20041;-88
2021/12/24 06:36:14;;;;;;;19.42;9.48;;;;;;;4.80;100.00;97892.53;4942585;28;20047;-89
2021/12/24 06:38:39;;;;;;;19.75;8.77;;;;;;;4.79;100.00;97900.53;4942539;28;20404;-88
2021/12/24 06:41:05;;;;;;;18.92;8.98;;;;;;;4.77;100.00;97899.91;4958586;28;20121;-86
2021/12/24 06:43:30;;;;;;;15.85;7.53;;;;;;;4.56;100.00;97881.50;4975627;28;20027;-87
2021/12/24 06:45:58;;;;;;;24.38;10.90;;;;;;;4.67;100.00;97879.41;4959045;28;20561;-88
2021/12/24 06:48:24;;;;;;;32.17;12.80;;;;;;;4.70;100.00;97885.03;4958487;28;20027;-85
2021/12/24 06:50:50;;;;;;;19.55;9.73;;;;;;;4.78;100.00;97896.31;4975151;28;20489;-86
2021/12/24 06:53:16;;;;;;;19.85;9.82;;;;;;;4.80;100.00;97889.13;4959777;28;20111;-86
2021/12/24 06:55:42;;;;;;;31.08;9.52;;;;;;;5.04;100.00;97877.56;4946206;28;20173;-86
2021/12/24 06:58:08;;;;;;;22.70;10.68;;;;;;;5.11;100.00;97881.00;4962145;28;20031;-86
2021/12/24 07:00:35;;;;;;;21.52;9.60;;;;;;;5.41;100.00;97890.44;4945912;28;20034;-84
2021/12/24 07:03:00;;;;;;;29.10;12.32;;;;;;;5.32;100.00;97876.75;4961854;28;20035;-83
2021/12/24 07:05:26;;;;;;;24.05;10.13;;;;;;;5.30;100.00;97878.75;4945826;28;20441;-87
2021/12/24 07:07:52;;;;;;;31.83;11.70;;;;;;;5.37;100.00;97889.22;4961589;28;20042;-84
2021/12/24 07:10:17;;;;;;;26.33;9.68;;;;;;;5.27;100.00;97879.13;4945900;28;20030;-84
2021/12/24 07:12:43;;;;;;;28.92;10.25;;;;;;;5.27;100.00;97884.34;4961677;28;20063;-87
2021/12/24 07:15:10;;;;;;;24.23;10.10;;;;;;;5.28;100.00;97894.53;4961306;28;20074;-87
2021/12/24 07:17:36;;;;;;;23.90;10.27;;;;;;;5.34;100.00;97900.00;4945597;28;20520;-85
2021/12/24 07:20:03;;;;;;;23.67;9.23;;;;;;;5.51;100.00;97901.34;4978617;28;20050;-86
2021/12/24 07:22:28;;;;;;;18.30;8.68;;;;;;;5.41;100.00;97869.63;4942904;29;20050;-85
2021/12/24 07:24:55;;;;;;;19.75;9.13;;;;;;;5.63;100.00;97885.19;4941086;28;20118;-82
2021/12/24 07:27:21;;;;;;;21.60;8.07;;;;;;;5.66;100.00;97888.22;4943554;28;20113;-84
2021/12/24 07:29:46;;;;;;;23.50;7.38;;;;;;;5.62;100.00;97865.34;4942260;28;20035;-85
2021/12/24 07:32:12;;;;;;;23.02;7.97;;;;;;;5.71;100.00;97898.06;4943435;28;20378;-84
2021/12/24 07:34:37;;;;;;;25.40;7.93;;;;;;;5.67;100.00;97889.00;4976689;28;20027;-84
2021/12/24 07:37:04;;;;;;;17.05;7.43;;;;;;;5.67;100.00;97883.78;4939169;28;20038;-87
2021/12/24 07:39:29;;;;;;;18.40;7.03;;;;;;;5.76;100.00;97897.47;4959749;28;20038;-87
2021/12/24 07:41:55;;;;;;;24.00;7.70;;;;;;;5.86;100.00;97897.94;4960567;28;20039;-84
2021/12/24 07:44:20;;;;;;;18.20;7.80;;;;;;;5.90;100.00;97895.75;4959315;28;20027;-84
2021/12/24 07:46:51;;;;;;;15.75;7.18;;;;;;;5.99;100.00;97908.44;4976586;28;20039;-84
2021/12/24 07:54:26;;;;;;;25.23;7.75;;;;;;;6.49;100.00;97904.06;4961270;28;20527;-87
2021/12/24 07:56:52;;;;;;;18.70;6.95;;;;;;;6.49;100.00;97906.66;4977612;28;20058;-85
2021/12/24 07:59:18;;;;;;;15.65;5.55;;;;;;;6.55;100.00;97911.09;4941406;28;20026;-86
2021/12/24 08:01:44;;;;;;;19.48;6.45;;;;;;;6.51;100.00;97892.41;4944305;28;20030;-86
2021/12/24 08:04:11;;;;;;;22.75;5.93;;;;;;;6.51;100.00;97891.63;4959048;28;20058;-84
2021/12/24 08:06:37;;;;;;;17.45;5.18;;;;;;;6.61;100.00;97905.06;4957721;28;20039;-84
2021/12/24 08:09:06;;;;;;;14.68;5.57;;;;;;;6.45;100.00;97881.97;4958488;28;20034;-84
2021/12/24 08:11:33;;;;;;;22.88;6.93;;;;;;;6.67;100.00;97893.84;4957746;28;20049;-84
2021/12/24 08:14:01;;;;;;;15.13;5.68;;;;;;;6.72;100.00;97894.06;4942231;28;20081;-84
2021/12/24 08:16:28;;;;;;;15.27;5.88;;;;;;;6.62;100.00;97870.16;4957869;28;20046;-84
2021/12/24 08:18:54;;;;;;;15.02;6.70;;;;;;;6.72;100.00;97888.88;4957824;28;20045;-83
2021/12/24 08:21:19;;;;;;;13.13;5.88;;;;;;;6.76;100.00;97891.06;4958413;28;20022;-82
2021/12/24 08:23:47;;;;;;;13.75;4.88;;;;;;;6.68;100.00;97864.19;4941803;28;20042;-82
2021/12/24 08:26:13;;;;;;;14.82;5.45;;;;;;;6.87;100.00;97887.84;4957651;28;20464;-83
2021/12/24 08:28:39;;;;;;;12.77;5.25;;;;;;;7.02;100.00;97899.94;4940628;28;20027;-83
2021/12/24 08:31:05;;;;;;;14.40;4.93;;;;;;;7.08;100.00;97894.72;4957274;28;20027;-82
2021/12/24 08:33:33;;;;;;;15.45;4.90;;;;;;;7.14;100.00;97893.13;4958053;28;20058;-82
2021/12/24 08:36:00;;;;;;;13.35;4.60;;;;;;;7.18;100.00;97883.09;4943571;28;20069;-82
2021/12/24 08:38:25;;;;;;;13.35;4.22;;;;;;;7.13;100.00;97894.13;4961326;28;20466;-82
2021/12/24 08:40:51;;;;;;;16.90;5.10;;;;;;;6.92;100.00;97869.81;4951217;28;20041;-86
2021/12/24 08:43:16;;;;;;;15.32;4.75;;;;;;;6.94;100.00;97880.88;4968443;28;20097;-81
2021/12/24 08:45:43;;;;;;;16.98;5.47;;;;;;;6.60;100.00;97850.53;4949622;28;20114;-82
2021/12/24 08:48:09;;;;;;;20.55;5.82;;;;;;;6.71;100.00;97879.44;4961255;28;20037;-87
2021/12/24 08:50:35;;;;;;;11.82;4.90;;;;;;;6.62;100.00;97874.59;4958166;28;20042;-87
2021/12/24 08:53:00;;;;;;;13.75;5.03;;;;;;;6.60;100.00;97861.75;4959142;28;20474;-86
2021/12/24 08:55:29;;;;;;;12.45;5.38;;;;;;;6.69;100.00;97846.72;4942015;28;20034;-87
2021/12/24 08:57:55;;;;;;;15.23;5.97;;;;;;;6.93;100.00;97871.44;4973018;28;20030;-84
2021/12/24 09:00:23;;;;;;;18.40;6.28;;;;;;;6.91;100.00;97870.00;4941624;28;20042;-85
2021/12/24 09:02:49;;;;;;;16.90;6.38;;;;;;;6.85;100.00;97866.38;4973456;28;20125;-85
2021/12/24 09:05:15;;;;;;;27.63;9.57;;;;;;;6.76;100.00;97862.38;4956673;28;20030;-86
2021/12/24 09:07:41;;;;;;;21.33;9.77;;;;;;;6.77;100.00;97879.63;4938292;28;20038;-88
2021/12/24 09:10:09;;;;;;;28.60;10.30;;;;;;;6.83;100.00;97881.44;4939797;28;20060;-85
2021/12/24 09:12:35;;;;;;;40.38;13.18;;;;;;;6.98;100.00;97882.06;4956379;28;20370;-87
2021/12/24 09:15:01;;;;;;;31.45;13.15;;;;;;;7.03;100.00;97876.25;4974105;28;20114;-84
2021/12/24 09:17:28;;;;;;;37.58;12.70;;;;;;;7.11;100.00;97877.88;4939866;28;20043;-85
2021/12/24 09:19:55;;;;;;;37.80;13.38;;;;;;;7.19;100.00;97885.47;4956436;28;20039;-87
2021/12/24 09:22:29;;;;;;;32.88;12.90;;;;;;;7.29;100.00;97888.50;4956574;28;20429;-85
2021/12/24 09:24:56;;;;;;;28.42;10.00;;;;;;;7.39;100.00;97898.53;4970534;28;20490;-85
2021/12/24 09:27:22;;;;;;;23.33;8.45;;;;;;;7.47;100.00;97900.16;4940550;28;20043;-84
2021/12/24 09:29:48;;;;;;;12.23;6.32;;;;;;;7.47;100.00;97887.09;4956297;28;20033;-85
2021/12/24 09:32:15;;;;;;;17.02;6.72;;;;;;;7.50;100.00;97878.84;4941063;28;20175;-85
2021/12/24 09:34:41;;;;;;;20.75;6.43;;;;;;;7.57;100.00;97882.25;4959632;28;21622;-85
2021/12/24 09:37:07;;;;;;;22.27;7.18;;;;;;;7.51;100.00;97863.97;4942325;28;20031;-84
2021/12/24 09:39:33;;;;;;;19.70;7.03;;;;;;;7.63;100.00;97896.31;4957956;28;20035;-84
2021/12/24 09:41:59;;;;;;;19.02;8.30;;;;;;;7.34;100.00;97907.97;4940883;28;20098;-83
2021/12/24 09:44:26;;;;;;;26.40;8.57;;;;;;;7.13;100.00;97909.78;4939619;28;20027;-83
2021/12/24 09:46:52;;;;;;;17.92;9.30;;;;;;;7.22;100.00;97913.78;4938458;28;20027;-86
2021/12/24 09:49:20;;;;;;;18.67;8.65;;;;;;;7.31;100.00;97924.84;4957004;28;20389;-86
2021/12/24 09:51:48;;;;;;;21.52;11.15;;;;;;;7.29;100.00;97901.56;4938691;28;20038;-85
2021/12/24 09:54:18;;;;;;;20.17;11.75;;;;;;;7.40;100.00;97909.78;4957007;28;20037;-84
2021/12/24 09:56:44;;;;;;;30.05;13.88;;;;;;;7.08;100.00;97915.59;4941062;28;20045;-84
2021/12/24 09:59:11;;;;;;;29.95;11.90;;;;;;;6.97;100.00;97914.38;4941709;28;20042;-87
2021/12/24 10:01:43;;;;;;;25.70;12.43;;;;;;;7.11;100.00;97919.63;4957160;28;20035;-85
2021/12/24 10:04:14;;;;;;;26.33;13.85;;;;;;;7.15;100.00;97920.81;4940303;28;20110;-82
2021/12/24 10:06:49;;;;;;;33.22;14.07;;;;;;;7.07;100.00;97928.81;4956316;28;20027;-87
2021/12/24 10:09:16;;;;;;;26.83;13.50;;;;;;;6.98;100.00;97907.38;4941827;28;20097;-87
2021/12/24 10:11:50;;;;;;;26.35;13.45;;;;;;;7.20;100.00;97915.00;4940740;28;20062;-88
2021/12/24 10:14:21;;;;;;;37.13;18.73;;;;;;;7.08;100.00;97910.38;4940642;28;20425;-90
2021/12/24 10:16:50;;;;;;;42.03;21.42;;;;;;;7.16;100.00;97917.22;4941562;28;20050;-86
2021/12/24 10:19:17;;;;;;;51.33;24.13;;;;;;;7.21;100.00;97934.88;4940906;28;20042;-87
2021/12/24 10:21:44;;;;;;;219.50;34.92;;;;;;;6.79;100.00;97911.53;4958163;28;20034;-90
2021/12/24 10:24:19;;;;;;;85.55;28.83;;;;;;;6.83;100.00;97921.38;4957411;28;20525;-88
2021/12/24 10:26:52;;;;;;;144.63;31.85;;;;;;;6.88;100.00;97927.81;4932587;28;20126;-86
2021/12/24 10:29:32;;;;;;;577.83;54.03;;;;;;;6.68;100.00;97915.53;4957667;28;20409;-88
2021/12/24 10:32:12;;;;;;;64.07;26.85;;;;;;;6.85;100.00;97911.56;4956487;28;20453;-88
2021/12/24 10:34:41;;;;;;;51.10;24.30;;;;;;;6.93;100.00;97918.38;4943635;28;20094;-86
2021/12/24 10:37:22;;;;;;;211.68;31.52;;;;;;;6.86;100.00;97925.38;4957721;28;20049;-86
2021/12/24 10:39:55;;;;;;;638.67;61.63;;;;;;;6.85;100.00;97913.34;4944453;28;20393;-87
2021/12/24 10:42:39;;;;;;;32.85;16.67;;;;;;;7.13;100.00;97902.75;4959805;28;20027;-87
2021/12/24 10:45:08;;;;;;;442.77;44.22;;;;;;;7.18;100.00;97914.41;4957257;28;20042;-87
2021/12/24 10:47:38;;;;;;;187.20;27.63;;;;;;;6.93;100.00;97891.47;4977409;28;20026;-89
2021/12/24 10:55:24;;;;;;;269.23;30.05;;;;;;;6.99;100.00;97912.38;4976896;28;20496;-87
2021/12/24 10:57:54;;;;;;;275.80;30.25;;;;;;;6.86;100.00;97891.47;4943019;28;20027;-87
2021/12/24 11:01:02;;;;;;;133.65;24.23;;;;;;;6.86;100.00;97894.06;4958560;28;20126;-89
2021/12/24 11:03:32;;;;;;;316.00;32.50;;;;;;;6.60;100.00;97892.25;4959915;28;20398;-90
2021/12/24 11:06:13;;;;;;;350.77;36.20;;;;;;;6.56;100.00;97892.63;4946768;28;20122;-90
2021/12/24 11:08:40;;;;;;;265.48;28.70;;;;;;;6.63;100.00;97912.72;4955132;28;20023;-89
2021/12/24 11:11:08;;;;;;;196.65;24.95;;;;;;;6.62;100.00;97913.72;4948513;28;20034;-87
2021/12/24 11:13:39;;;;;;;293.67;27.60;;;;;;;6.46;100.00;97902.63;4949367;28;20473;-90
2021/12/24 11:16:09;;;;;;;156.77;21.33;;;;;;;6.49;100.00;97896.22;4951963;28;20137;-89
2021/12/24 11:18:39;;;;;;;125.25;18.88;;;;;;;6.52;100.00;97903.66;4949363;28;20125;-86
2021/12/24 11:21:09;;;;;;;75.95;16.58;;;;;;;6.66;100.00;97925.34;4956976;28;20166;-89
2021/12/24 11:23:38;;;;;;;212.40;22.65;;;;;;;6.36;100.00;97912.59;4941635;28;20038;-88
2021/12/24 11:26:08;;;;;;;132.73;19.67;;;;;;;6.68;100.00;97916.34;4975331;28;20043;-88
2021/12/24 11:28:35;;;;;;;168.02;21.73;;;;;;;6.85;100.00;97921.16;4956185;28;20019;-87
2021/12/24 11:31:06;;;;;;;161.05;19.63;;;;;;;7.07;100.00;97928.81;4958212;28;20031;-87
2021/12/24 11:33:34;;;;;;;188.13;21.75;;;;;;;6.96;100.00;97923.22;4958447;28;20501;-89
2021/12/24 11:36:02;;;;;;;64.90;22.70;;;;;;;7.13;100.00;97931.44;4960883;28;20044;-91
2021/12/24 11:38:32;;;;;;;255.07;31.52;;;;;;;7.20;100.00;97928.06;4945291;28;20042;-87
2021/12/24 11:40:59;;;;;;;29.42;17.10;;;;;;;7.38;100.00;97932.66;4964188;28;20031;-89
2021/12/24 11:43:29;;;;;;;47.38;20.45;;;;;;;7.14;100.00;97904.34;4965961;28;20151;-89
2021/12/24 11:46:00;;;;;;;148.95;20.38;;;;;;;7.02;100.00;97921.63;4947117;28;20118;-89
2021/12/24 11:48:28;;;;;;;27.70;15.65;;;;;;;7.24;100.00;97909.16;4950863;28;20031;-90
2021/12/24 11:50:54;;;;;;;164.15;25.20;;;;;;;7.18;100.00;97899.53;4943851;28;20377;-87
2021/12/24 11:53:20;;;;;;;171.25;23.92;;;;;;;7.31;100.00;97913.59;4965194;28;20026;-90
2021/12/24 11:55:49;;;;;;;248.80;25.48;;;;;;;7.05;100.00;97910.78;4942190;29;20051;-88
2021/12/24 12:02:33;;;;;;;433.75;34.90;;;;;;;7.06;100.00;97901.94;4979802;28;20058;-87
2021/12/24 12:05:23;;;;;;;520.78;41.58;;;;;;;7.11;100.00;97909.97;4946356;28;20042;-89
2021/12/24 12:07:55;;;;;;;43.58;16.70;;;;;;;6.98;100.00;97876.84;4955623;28;20114;-89
2021/12/24 12:11:00;;;;;;;720.45;52.65;;;;;;;7.17;100.00;97904.94;4947192;28;20022;-90
2021/12/24 12:14:01;;;;;;;65.30;18.88;;;;;;;7.03;100.00;97910.19;4947452;28;20402;-88
2021/12/24 12:16:42;;;;;;;783.70;57.55;;;;;;;6.91;100.00;97903.94;4948131;28;20395;-86
2021/12/24 12:19:46;;;;;;;861.83;65.97;;;;;;;6.81;100.00;97909.53;4948777;28;20027;-87
2021/12/24 12:22:20;;;;;;;379.58;30.23;;;;;;;6.98;100.00;97913.38;4959079;28;20034;-89
2021/12/24 12:25:01;;;;;;;103.68;22.00;;;;;;;7.16;100.00;97914.59;4946009;28;20089;-87
2021/12/24 12:27:48;;;;;;;438.67;32.80;;;;;;;6.98;100.00;97884.69;4964958;28;20063;-87
2021/12/24 12:30:22;;;;;;;401.75;34.50;;;;;;;7.09;100.00;97905.97;4945995;29;20478;-86
2021/12/24 12:33:12;;;;;;;202.98;26.17;;;;;;;6.81;100.00;97870.41;4948174;28;20505;-86
2021/12/24 12:35:53;;;;;;;919.42;68.75;;;;;;;7.09;100.00;97900.75;4953111;28;20117;-85
2021/12/24 12:38:39;;;;;;;127.40;23.75;;;;;;;7.20;100.00;97897.53;4942353;28;20094;-86
2021/12/24 12:41:47;;;;;;;510.13;44.22;;;;;;;7.19;100.00;97901.13;4966999;28;20055;-88
2021/12/24 12:44:15;;;;;;;321.27;33.97;;;;;;;7.11;100.00;97875.25;4963847;28;20039;-88
2021/12/24 12:46:46;;;;;;;476.42;39.42;;;;;;;7.33;100.00;97895.94;4966269;28;20030;-87
2021/12/24 12:49:16;;;;;;;126.35;25.98;;;;;;;7.34;100.00;97881.88;4950741;28;20031;-89
2021/12/24 12:51:54;;;;;;;1076.13;73.35;;;;;;;7.33;100.00;97890.72;4955438;28;20148;-89
2021/12/24 12:54:30;;;;;;;460.13;39.35;;;;;;;7.32;100.00;97895.13;4978123;28;20102;-89
2021/12/24 12:57:14;;;;;;;998.83;77.32;;;;;;;7.11;100.00;97896.13;4955839;28;20121;-84
2021/12/24 13:00:01;;;;;;;237.32;30.25;;;;;;;7.10;100.00;97884.09;4965179;28;20477;-85
2021/12/24 13:03:07;;;;;;;482.50;39.40;;;;;;;7.16;100.00;97891.09;4975250;28;20070;-86
2021/12/24 13:06:04;;;;;;;1003.72;84.65;;;;;;;7.24;100.00;97883.06;4948299;28;20036;-86
2021/12/24 13:08:36;;;;;;;805.08;63.20;;;;;;;7.04;100.00;97864.00;4958133;28;20034;-85
2021/12/24 13:11:17;;;;;;;405.83;38.30;;;;;;;7.03;100.00;97867.59;4945124;28;20031;-85
2021/12/24 13:13:57;;;;;;;733.67;59.20;;;;;;;7.08;100.00;97873.84;4959683;28;20138;-86
2021/12/24 13:16:49;;;;;;;1052.05;81.78;;;;;;;7.20;100.00;97868.81;4959657;28;20050;-85
2021/12/24 13:24:41;;;;;;;393.45;49.20;;;;;;;7.09;100.00;97864.22;4976138;28;20054;-84
2021/12/24 13:27:07;;;;;;;383.90;50.55;;;;;;;7.21;100.00;97857.38;4941102;28;20508;-84
2021/12/24 13:29:33;;;;;;;464.88;54.50;;;;;;;7.08;100.00;97863.41;4975597;28;20023;-84